sensor_id;sensor_type;location;lat;lon;timestamp;P1;durP1;ratioP1;P2;durP2;ratioP2
2023;SDS011;1016;48.770;9.154;2022-09-09T00:04:30;18.60;;;1.60;;
2023;SDS011;1016;48.770;9.154;2022-09-09T00:12:25;17.98;;;1.60;;
2023;SDS011;1016;48.770;9.154;2022-09-09T00:14:59;17.83;;;1.60;;
2023;SDS011;1016;48.770;9.154;2022-09-09T00:17:36;17.50;;;1.50;;
2023;SDS011;1016;48.770;9.154;2022-09-09T00:20:28;17.73;;;1.50;;
2023;SDS011;1016;48.770;9.154;2022-09-09T00:23:27;17.33;;;1.60;;
2023;SDS011;1016;48.770;9.154;2022-09-09T00:26:06;18.47;;;1.53;;
2023;SDS011;1016;48.770;9.154;2022-09-09T00:31:23;18.03;;;1.40;;
2023;SDS011;1016;48.770;9.154;2022-09-09T00:33:53;18.05;;;1.40;;
2023;SDS011;1016;48.770;9.154;2022-09-09T00:36:21;17.08;;;1.40;;
2023;SDS011;1016;48.770;9.154;2022-09-09T00:38:56;17.42;;;1.33;;
2023;SDS011;1016;48.770;9.154;2022-09-09T00:41:43;17.90;;;1.58;;
2023;SDS011;1016;48.770;9.154;2022-09-09T00:58:08;18.50;;;1.50;;
2023;SDS011;1016;48.770;9.154;2022-09-09T01:06:20;18.02;;;1.40;;
2023;SDS011;1016;48.770;9.154;2022-09-09T01:09:02;17.90;;;1.60;;
2023;SDS011;1016;48.770;9.154;2022-09-09T01:11:38;17.33;;;1.55;;
2023;SDS011;1016;48.770;9.154;2022-09-09T01:17:10;16.67;;;1.30;;
2023;SDS011;1016;48.770;9.154;2022-09-09T01:19:45;18.30;;;1.38;;
2023;SDS011;1016;48.770;9.154;2022-09-09T01:27:39;17.95;;;1.50;;
2023;SDS011;1016;48.770;9.154;2022-09-09T01:30:08;17.05;;;1.30;;
2023;SDS011;1016;48.770;9.154;2022-09-09T01:32:46;16.90;;;1.30;;
2023;SDS011;1016;48.770;9.154;2022-09-09T01:37:52;16.60;;;1.40;;
2023;SDS011;1016;48.770;9.154;2022-09-09T01:40:18;17.63;;;1.23;;
2023;SDS011;1016;48.770;9.154;2022-09-09T01:42:44;16.98;;;1.30;;
2023;SDS011;1016;48.770;9.154;2022-09-09T01:45:10;17.93;;;1.40;;
2023;SDS011;1016;48.770;9.154;2022-09-09T01:47:35;17.70;;;1.65;;
2023;SDS011;1016;48.770;9.154;2022-09-09T01:50:01;19.10;;;1.60;;
2023;SDS011;1016;48.770;9.154;2022-09-09T01:52:28;18.00;;;1.40;;
2023;SDS011;1016;48.770;9.154;2022-09-09T01:54:54;18.00;;;1.40;;
2023;SDS011;1016;48.770;9.154;2022-09-09T02:00:14;18.65;;;1.50;;
2023;SDS011;1016;48.770;9.154;2022-09-09T02:05:38;17.95;;;1.40;;
2023;SDS011;1016;48.770;9.154;2022-09-09T02:08:08;18.55;;;1.40;;
2023;SDS011;1016;48.770;9.154;2022-09-09T02:13:51;17.40;;;1.50;;
2023;SDS011;1016;48.770;9.154;2022-09-09T02:16:28;17.20;;;1.40;;
2023;SDS011;1016;48.770;9.154;2022-09-09T02:19:11;16.80;;;1.20;;
2023;SDS011;1016;48.770;9.154;2022-09-09T02:21:57;18.02;;;1.45;;
2023;SDS011;1016;48.770;9.154;2022-09-09T02:24:25;17.25;;;1.30;;
2023;SDS011;1016;48.770;9.154;2022-09-09T02:26:53;18.30;;;1.50;;
2023;SDS011;1016;48.770;9.154;2022-09-09T02:29:29;18.48;;;1.50;;
2023;SDS011;1016;48.770;9.154;2022-09-09T02:32:00;17.50;;;1.45;;
2023;SDS011;1016;48.770;9.154;2022-09-09T02:34:30;17.25;;;1.50;;
2023;SDS011;1016;48.770;9.154;2022-09-09T02:36:58;17.67;;;1.30;;
2023;SDS011;1016;48.770;9.154;2022-09-09T02:39:25;16.47;;;1.40;;
2023;SDS011;1016;48.770;9.154;2022-09-09T02:41:51;17.75;;;1.40;;
2023;SDS011;1016;48.770;9.154;2022-09-09T02:44:17;19.23;;;1.30;;
2023;SDS011;1016;48.770;9.154;2022-09-09T02:46:47;17.23;;;1.20;;
2023;SDS011;1016;48.770;9.154;2022-09-09T02:50:17;16.70;;;1.23;;
2023;SDS011;1016;48.770;9.154;2022-09-09T02:52:24;16.33;;;1.15;;
2023;SDS011;1016;48.770;9.154;2022-09-09T02:54:56;16.40;;;1.30;;
2023;SDS011;1016;48.770;9.154;2022-09-09T02:57:28;17.20;;;1.15;;
2023;SDS011;1016;48.770;9.154;2022-09-09T02:59:58;16.60;;;1.10;;
2023;SDS011;1016;48.770;9.154;2022-09-09T03:02:25;16.67;;;0.90;;
2023;SDS011;1016;48.770;9.154;2022-09-09T03:04:51;16.38;;;1.20;;
2023;SDS011;1016;48.770;9.154;2022-09-09T03:07:16;16.13;;;1.00;;
2023;SDS011;1016;48.770;9.154;2022-09-09T03:09:43;16.60;;;1.00;;
2023;SDS011;1016;48.770;9.154;2022-09-09T03:12:09;17.73;;;1.10;;
2023;SDS011;1016;48.770;9.154;2022-09-09T03:14:36;16.90;;;1.20;;
2023;SDS011;1016;48.770;9.154;2022-09-09T03:17:03;17.13;;;1.20;;
2023;SDS011;1016;48.770;9.154;2022-09-09T03:19:29;16.88;;;1.10;;
2023;SDS011;1016;48.770;9.154;2022-09-09T03:21:55;16.95;;;1.10;;
2023;SDS011;1016;48.770;9.154;2022-09-09T03:24:20;17.70;;;1.30;;
2023;SDS011;1016;48.770;9.154;2022-09-09T03:26:47;17.02;;;1.30;;
2023;SDS011;1016;48.770;9.154;2022-09-09T03:29:13;17.90;;;1.40;;
2023;SDS011;1016;48.770;9.154;2022-09-09T03:31:39;16.50;;;1.40;;
2023;SDS011;1016;48.770;9.154;2022-09-09T03:34:05;16.67;;;1.33;;
2023;SDS011;1016;48.770;9.154;2022-09-09T03:36:31;18.10;;;1.40;;
2023;SDS011;1016;48.770;9.154;2022-09-09T03:38:57;16.97;;;1.10;;
2023;SDS011;1016;48.770;9.154;2022-09-09T03:41:23;18.00;;;1.30;;
2023;SDS011;1016;48.770;9.154;2022-09-09T03:43:52;16.30;;;1.10;;
2023;SDS011;1016;48.770;9.154;2022-09-09T03:46:19;16.70;;;1.30;;
2023;SDS011;1016;48.770;9.154;2022-09-09T03:48:45;16.30;;;1.30;;
2023;SDS011;1016;48.770;9.154;2022-09-09T03:51:11;16.70;;;1.20;;
2023;SDS011;1016;48.770;9.154;2022-09-09T03:53:37;17.20;;;1.23;;
2023;SDS011;1016;48.770;9.154;2022-09-09T03:56:03;16.73;;;1.20;;
2023;SDS011;1016;48.770;9.154;2022-09-09T03:58:31;16.90;;;1.15;;
2023;SDS011;1016;48.770;9.154;2022-09-09T04:00:59;17.20;;;1.30;;
2023;SDS011;1016;48.770;9.154;2022-09-09T04:03:26;16.40;;;1.20;;
2023;SDS011;1016;48.770;9.154;2022-09-09T04:05:52;16.73;;;1.17;;
2023;SDS011;1016;48.770;9.154;2022-09-09T04:08:19;17.20;;;1.40;;
2023;SDS011;1016;48.770;9.154;2022-09-09T04:10:46;17.40;;;1.20;;
2023;SDS011;1016;48.770;9.154;2022-09-09T04:13:13;16.80;;;1.30;;
2023;SDS011;1016;48.770;9.154;2022-09-09T04:15:41;16.20;;;1.13;;
2023;SDS011;1016;48.770;9.154;2022-09-09T04:18:07;17.10;;;1.30;;
2023;SDS011;1016;48.770;9.154;2022-09-09T04:20:33;16.38;;;1.10;;
2023;SDS011;1016;48.770;9.154;2022-09-09T04:22:59;17.60;;;1.30;;
2023;SDS011;1016;48.770;9.154;2022-09-09T04:25:24;18.70;;;1.40;;
2023;SDS011;1016;48.770;9.154;2022-09-09T04:27:56;18.30;;;1.70;;
2023;SDS011;1016;48.770;9.154;2022-09-09T04:30:23;17.20;;;1.50;;
2023;SDS011;1016;48.770;9.154;2022-09-09T04:32:49;16.90;;;1.60;;
2023;SDS011;1016;48.770;9.154;2022-09-09T04:35:15;18.23;;;1.40;;
2023;SDS011;1016;48.770;9.154;2022-09-09T04:37:40;17.90;;;1.23;;
2023;SDS011;1016;48.770;9.154;2022-09-09T04:40:06;19.02;;;1.40;;
2023;SDS011;1016;48.770;9.154;2022-09-09T04:42:38;17.20;;;1.30;;
2023;SDS011;1016;48.770;9.154;2022-09-09T04:45:04;19.45;;;1.85;;
2023;SDS011;1016;48.770;9.154;2022-09-09T04:47:31;16.50;;;1.50;;
2023;SDS011;1016;48.770;9.154;2022-09-09T04:49:57;16.70;;;1.30;;
2023;SDS011;1016;48.770;9.154;2022-09-09T04:52:23;17.60;;;1.40;;
2023;SDS011;1016;48.770;9.154;2022-09-09T04:54:48;17.70;;;1.60;;
2023;SDS011;1016;48.770;9.154;2022-09-09T04:57:14;17.85;;;1.50;;
2023;SDS011;1016;48.770;9.154;2022-09-09T04:59:39;18.50;;;1.60;;
2023;SDS011;1016;48.770;9.154;2022-09-09T05:02:05;17.80;;;1.67;;
2023;SDS011;1016;48.770;9.154;2022-09-09T05:04:31;16.80;;;1.63;;
2023;SDS011;1016;48.770;9.154;2022-09-09T05:06:58;17.20;;;1.60;;
2023;SDS011;1016;48.770;9.154;2022-09-09T05:09:23;17.58;;;1.80;;
2023;SDS011;1016;48.770;9.154;2022-09-09T05:11:49;17.63;;;1.50;;
2023;SDS011;1016;48.770;9.154;2022-09-09T05:14:16;17.85;;;1.80;;
2023;SDS011;1016;48.770;9.154;2022-09-09T05:16:42;19.73;;;1.50;;
2023;SDS011;1016;48.770;9.154;2022-09-09T05:19:09;17.38;;;1.80;;
2023;SDS011;1016;48.770;9.154;2022-09-09T05:21:35;17.60;;;1.63;;
2023;SDS011;1016;48.770;9.154;2022-09-09T05:24:01;17.92;;;1.60;;
2023;SDS011;1016;48.770;9.154;2022-09-09T05:26:26;19.00;;;1.67;;
2023;SDS011;1016;48.770;9.154;2022-09-09T05:28:54;17.65;;;1.65;;
2023;SDS011;1016;48.770;9.154;2022-09-09T05:31:20;17.30;;;1.70;;
2023;SDS011;1016;48.770;9.154;2022-09-09T05:33:46;18.10;;;1.65;;
2023;SDS011;1016;48.770;9.154;2022-09-09T05:36:13;18.70;;;1.60;;
2023;SDS011;1016;48.770;9.154;2022-09-09T05:38:44;17.70;;;1.50;;
2023;SDS011;1016;48.770;9.154;2022-09-09T05:41:10;18.25;;;1.60;;
2023;SDS011;1016;48.770;9.154;2022-09-09T05:43:37;18.35;;;1.60;;
2023;SDS011;1016;48.770;9.154;2022-09-09T05:46:05;17.67;;;1.58;;
2023;SDS011;1016;48.770;9.154;2022-09-09T05:48:33;17.02;;;1.40;;
2023;SDS011;1016;48.770;9.154;2022-09-09T05:51:03;17.90;;;1.80;;
2023;SDS011;1016;48.770;9.154;2022-09-09T05:53:31;17.60;;;1.60;;
2023;SDS011;1016;48.770;9.154;2022-09-09T05:55:58;17.67;;;1.60;;
2023;SDS011;1016;48.770;9.154;2022-09-09T05:58:28;19.35;;;1.80;;
2023;SDS011;1016;48.770;9.154;2022-09-09T06:01:05;17.40;;;1.60;;
2023;SDS011;1016;48.770;9.154;2022-09-09T06:03:33;18.40;;;1.70;;
2023;SDS011;1016;48.770;9.154;2022-09-09T06:06:00;19.05;;;1.80;;
2023;SDS011;1016;48.770;9.154;2022-09-09T06:08:30;16.60;;;1.50;;
2023;SDS011;1016;48.770;9.154;2022-09-09T06:11:00;16.97;;;1.70;;
2023;SDS011;1016;48.770;9.154;2022-09-09T06:13:27;17.20;;;1.80;;
2023;SDS011;1016;48.770;9.154;2022-09-09T06:15:53;17.10;;;1.50;;
2023;SDS011;1016;48.770;9.154;2022-09-09T06:18:19;19.10;;;1.67;;
2023;SDS011;1016;48.770;9.154;2022-09-09T06:20:57;16.80;;;1.30;;
2023;SDS011;1016;48.770;9.154;2022-09-09T06:23:25;18.20;;;1.48;;
2023;SDS011;1016;48.770;9.154;2022-09-09T06:25:59;17.08;;;1.60;;
2023;SDS011;1016;48.770;9.154;2022-09-09T06:28:36;17.00;;;1.70;;
2023;SDS011;1016;48.770;9.154;2022-09-09T06:31:08;18.00;;;2.10;;
2023;SDS011;1016;48.770;9.154;2022-09-09T06:33:36;20.70;;;1.90;;
2023;SDS011;1016;48.770;9.154;2022-09-09T06:36:13;18.83;;;1.85;;
2023;SDS011;1016;48.770;9.154;2022-09-09T06:38:40;17.80;;;1.70;;
2023;SDS011;1016;48.770;9.154;2022-09-09T06:41:07;18.60;;;2.00;;
2023;SDS011;1016;48.770;9.154;2022-09-09T06:43:34;17.43;;;1.70;;
2023;SDS011;1016;48.770;9.154;2022-09-09T06:46:08;17.45;;;1.60;;
2023;SDS011;1016;48.770;9.154;2022-09-09T06:48:35;16.60;;;1.60;;
2023;SDS011;1016;48.770;9.154;2022-09-09T06:51:05;18.00;;;1.80;;
2023;SDS011;1016;48.770;9.154;2022-09-09T06:53:39;18.20;;;1.92;;
2023;SDS011;1016;48.770;9.154;2022-09-09T06:58:35;16.55;;;1.50;;
2023;SDS011;1016;48.770;9.154;2022-09-09T07:01:05;17.55;;;1.80;;
2023;SDS011;1016;48.770;9.154;2022-09-09T07:03:31;17.50;;;2.00;;
2023;SDS011;1016;48.770;9.154;2022-09-09T07:05:58;17.90;;;1.90;;
2023;SDS011;1016;48.770;9.154;2022-09-09T07:08:25;17.50;;;1.90;;
2023;SDS011;1016;48.770;9.154;2022-09-09T07:10:51;18.00;;;1.70;;
2023;SDS011;1016;48.770;9.154;2022-09-09T07:13:24;19.77;;;2.60;;
2023;SDS011;1016;48.770;9.154;2022-09-09T07:15:51;17.48;;;1.90;;
2023;SDS011;1016;48.770;9.154;2022-09-09T07:18:17;17.73;;;1.90;;
2023;SDS011;1016;48.770;9.154;2022-09-09T07:20:42;17.60;;;1.83;;
2023;SDS011;1016;48.770;9.154;2022-09-09T07:23:08;18.58;;;1.80;;
2023;SDS011;1016;48.770;9.154;2022-09-09T07:25:33;17.40;;;1.80;;
2023;SDS011;1016;48.770;9.154;2022-09-09T07:27:59;18.97;;;1.90;;
2023;SDS011;1016;48.770;9.154;2022-09-09T07:30:25;18.70;;;2.00;;
2023;SDS011;1016;48.770;9.154;2022-09-09T07:32:51;17.50;;;1.80;;
2023;SDS011;1016;48.770;9.154;2022-09-09T07:35:16;17.83;;;1.70;;
2023;SDS011;1016;48.770;9.154;2022-09-09T07:37:42;19.17;;;1.60;;
2023;SDS011;1016;48.770;9.154;2022-09-09T07:40:08;17.80;;;1.70;;
2023;SDS011;1016;48.770;9.154;2022-09-09T07:42:35;16.40;;;1.70;;
2023;SDS011;1016;48.770;9.154;2022-09-09T07:45:02;17.20;;;1.80;;
2023;SDS011;1016;48.770;9.154;2022-09-09T07:47:28;19.27;;;1.90;;
2023;SDS011;1016;48.770;9.154;2022-09-09T07:49:54;18.95;;;1.90;;
2023;SDS011;1016;48.770;9.154;2022-09-09T07:52:20;17.60;;;1.85;;
2023;SDS011;1016;48.770;9.154;2022-09-09T07:54:46;18.43;;;2.00;;
2023;SDS011;1016;48.770;9.154;2022-09-09T07:57:12;18.75;;;1.70;;
2023;SDS011;1016;48.770;9.154;2022-09-09T07:59:37;19.53;;;2.10;;
2023;SDS011;1016;48.770;9.154;2022-09-09T08:02:03;19.40;;;1.77;;
2023;SDS011;1016;48.770;9.154;2022-09-09T08:04:29;17.73;;;1.80;;
2023;SDS011;1016;48.770;9.154;2022-09-09T08:06:56;17.80;;;1.80;;
2023;SDS011;1016;48.770;9.154;2022-09-09T08:09:23;18.00;;;2.10;;
2023;SDS011;1016;48.770;9.154;2022-09-09T08:11:51;19.00;;;2.00;;
2023;SDS011;1016;48.770;9.154;2022-09-09T08:14:17;19.17;;;2.50;;
2023;SDS011;1016;48.770;9.154;2022-09-09T08:16:44;18.10;;;1.73;;
2023;SDS011;1016;48.770;9.154;2022-09-09T08:19:11;18.75;;;1.80;;
2023;SDS011;1016;48.770;9.154;2022-09-09T08:21:40;17.65;;;1.60;;
2023;SDS011;1016;48.770;9.154;2022-09-09T08:24:07;19.50;;;2.03;;
2023;SDS011;1016;48.770;9.154;2022-09-09T08:26:34;17.92;;;1.75;;
2023;SDS011;1016;48.770;9.154;2022-09-09T08:29:03;17.40;;;1.80;;
2023;SDS011;1016;48.770;9.154;2022-09-09T08:31:31;17.98;;;1.60;;
2023;SDS011;1016;48.770;9.154;2022-09-09T08:34:05;17.50;;;1.60;;
2023;SDS011;1016;48.770;9.154;2022-09-09T08:36:33;17.13;;;1.42;;
2023;SDS011;1016;48.770;9.154;2022-09-09T08:39:01;17.05;;;1.60;;
2023;SDS011;1016;48.770;9.154;2022-09-09T08:44:28;17.80;;;1.70;;
2023;SDS011;1016;48.770;9.154;2022-09-09T08:52:55;18.77;;;1.90;;
2023;SDS011;1016;48.770;9.154;2022-09-09T08:55:48;17.67;;;2.00;;
2023;SDS011;1016;48.770;9.154;2022-09-09T08:58:51;19.27;;;1.70;;
2023;SDS011;1016;48.770;9.154;2022-09-09T09:04:24;18.08;;;1.70;;
2023;SDS011;1016;48.770;9.154;2022-09-09T09:09:55;18.40;;;1.95;;
2023;SDS011;1016;48.770;9.154;2022-09-09T09:12:41;18.95;;;2.10;;
2023;SDS011;1016;48.770;9.154;2022-09-09T09:15:25;18.70;;;2.20;;
2023;SDS011;1016;48.770;9.154;2022-09-09T09:17:53;18.85;;;2.10;;
2023;SDS011;1016;48.770;9.154;2022-09-09T09:20:21;18.60;;;2.20;;
2023;SDS011;1016;48.770;9.154;2022-09-09T09:22:56;18.98;;;2.05;;
2023;SDS011;1016;48.770;9.154;2022-09-09T09:25:34;17.67;;;2.05;;
2023;SDS011;1016;48.770;9.154;2022-09-09T09:28:07;17.10;;;2.10;;
2023;SDS011;1016;48.770;9.154;2022-09-09T09:33:51;18.02;;;2.10;;
2023;SDS011;1016;48.770;9.154;2022-09-09T09:36:19;17.38;;;1.90;;
2023;SDS011;1016;48.770;9.154;2022-09-09T09:41:41;21.50;;;2.80;;
2023;SDS011;1016;48.770;9.154;2022-09-09T09:49:37;16.67;;;1.70;;
2023;SDS011;1016;48.770;9.154;2022-09-09T09:52:03;18.50;;;2.40;;
2023;SDS011;1016;48.770;9.154;2022-09-09T09:54:30;17.83;;;2.00;;
2023;SDS011;1016;48.770;9.154;2022-09-09T09:57:11;20.90;;;2.28;;
2023;SDS011;1016;48.770;9.154;2022-09-09T09:59:39;18.60;;;2.40;;
2023;SDS011;1016;48.770;9.154;2022-09-09T10:02:16;17.40;;;1.70;;
2023;SDS011;1016;48.770;9.154;2022-09-09T10:04:45;16.85;;;1.40;;
2023;SDS011;1016;48.770;9.154;2022-09-09T10:07:21;16.92;;;1.40;;
2023;SDS011;1016;48.770;9.154;2022-09-09T10:09:56;18.17;;;1.80;;
2023;SDS011;1016;48.770;9.154;2022-09-09T10:12:25;16.83;;;1.80;;
2023;SDS011;1016;48.770;9.154;2022-09-09T10:26:12;17.88;;;1.75;;
2023;SDS011;1016;48.770;9.154;2022-09-09T10:29:00;19.17;;;1.80;;
2023;SDS011;1016;48.770;9.154;2022-09-09T10:31:38;18.92;;;1.67;;
2023;SDS011;1016;48.770;9.154;2022-09-09T10:42:42;18.15;;;1.77;;
2023;SDS011;1016;48.770;9.154;2022-09-09T10:45:18;17.48;;;1.88;;
2023;SDS011;1016;48.770;9.154;2022-09-09T10:53:03;18.10;;;1.90;;
2023;SDS011;1016;48.770;9.154;2022-09-09T10:55:41;17.88;;;1.52;;
2023;SDS011;1016;48.770;9.154;2022-09-09T10:58:17;18.23;;;1.70;;
2023;SDS011;1016;48.770;9.154;2022-09-09T11:00:51;18.77;;;1.77;;
2023;SDS011;1016;48.770;9.154;2022-09-09T11:03:27;17.80;;;1.60;;
2023;SDS011;1016;48.770;9.154;2022-09-09T11:06:00;17.60;;;1.60;;
2023;SDS011;1016;48.770;9.154;2022-09-09T11:08:35;19.10;;;2.65;;
2023;SDS011;1016;48.770;9.154;2022-09-09T11:18:48;16.58;;;1.40;;
2023;SDS011;1016;48.770;9.154;2022-09-09T11:21:20;18.05;;;1.50;;
2023;SDS011;1016;48.770;9.154;2022-09-09T11:23:54;18.02;;;1.30;;
2023;SDS011;1016;48.770;9.154;2022-09-09T11:26:32;18.42;;;1.30;;
2023;SDS011;1016;48.770;9.154;2022-09-09T11:29:23;18.30;;;1.30;;
2023;SDS011;1016;48.770;9.154;2022-09-09T11:38:13;17.20;;;1.40;;
2023;SDS011;1016;48.770;9.154;2022-09-09T11:40:39;18.17;;;1.40;;
2023;SDS011;1016;48.770;9.154;2022-09-09T11:43:09;18.05;;;1.33;;
2023;SDS011;1016;48.770;9.154;2022-09-09T11:45:38;17.55;;;1.30;;
2023;SDS011;1016;48.770;9.154;2022-09-09T11:48:21;17.00;;;1.10;;
2023;SDS011;1016;48.770;9.154;2022-09-09T11:51:12;17.20;;;1.30;;
2023;SDS011;1016;48.770;9.154;2022-09-09T11:53:52;16.35;;;1.30;;
2023;SDS011;1016;48.770;9.154;2022-09-09T11:56:30;17.00;;;1.17;;
2023;SDS011;1016;48.770;9.154;2022-09-09T11:58:57;16.63;;;1.20;;
2023;SDS011;1016;48.770;9.154;2022-09-09T12:01:41;16.90;;;1.10;;
2023;SDS011;1016;48.770;9.154;2022-09-09T12:19:39;16.40;;;1.40;;
2023;SDS011;1016;48.770;9.154;2022-09-09T12:22:22;17.10;;;1.50;;
2023;SDS011;1016;48.770;9.154;2022-09-09T12:28:00;18.00;;;1.20;;
2023;SDS011;1016;48.770;9.154;2022-09-09T12:30:33;16.30;;;1.20;;
2023;SDS011;1016;48.770;9.154;2022-09-09T12:33:16;16.80;;;1.10;;
2023;SDS011;1016;48.770;9.154;2022-09-09T12:35:44;16.45;;;1.10;;
2023;SDS011;1016;48.770;9.154;2022-09-09T12:38:17;17.00;;;1.42;;
2023;SDS011;1016;48.770;9.154;2022-09-09T12:40:55;17.03;;;1.30;;
2023;SDS011;1016;48.770;9.154;2022-09-09T12:43:22;16.58;;;1.27;;
2023;SDS011;1016;48.770;9.154;2022-09-09T12:45:50;16.50;;;1.27;;
2023;SDS011;1016;48.770;9.154;2022-09-09T12:48:22;17.17;;;1.20;;
2023;SDS011;1016;48.770;9.154;2022-09-09T12:50:57;17.10;;;1.23;;
2023;SDS011;1016;48.770;9.154;2022-09-09T12:53:26;18.45;;;2.67;;
2023;SDS011;1016;48.770;9.154;2022-09-09T12:55:57;17.83;;;1.63;;
2023;SDS011;1016;48.770;9.154;2022-09-09T12:58:25;16.60;;;1.10;;
2023;SDS011;1016;48.770;9.154;2022-09-09T13:00:54;16.75;;;1.30;;
2023;SDS011;1016;48.770;9.154;2022-09-09T13:03:24;16.35;;;1.13;;
2023;SDS011;1016;48.770;9.154;2022-09-09T13:05:50;17.50;;;1.40;;
2023;SDS011;1016;48.770;9.154;2022-09-09T13:08:18;17.45;;;1.25;;
2023;SDS011;1016;48.770;9.154;2022-09-09T13:10:48;16.60;;;1.30;;
2023;SDS011;1016;48.770;9.154;2022-09-09T13:15:59;17.05;;;1.30;;
2023;SDS011;1016;48.770;9.154;2022-09-09T13:18:30;17.67;;;1.23;;
2023;SDS011;1016;48.770;9.154;2022-09-09T13:20:59;17.60;;;1.40;;
2023;SDS011;1016;48.770;9.154;2022-09-09T13:23:32;16.90;;;1.10;;
2023;SDS011;1016;48.770;9.154;2022-09-09T13:26:04;17.42;;;1.17;;
2023;SDS011;1016;48.770;9.154;2022-09-09T13:28:43;17.00;;;1.20;;
2023;SDS011;1016;48.770;9.154;2022-09-09T13:31:30;17.33;;;1.50;;
2023;SDS011;1016;48.770;9.154;2022-09-09T13:33:58;18.50;;;1.40;;
2023;SDS011;1016;48.770;9.154;2022-09-09T13:36:30;17.37;;;1.50;;
2023;SDS011;1016;48.770;9.154;2022-09-09T13:38:58;16.67;;;1.08;;
2023;SDS011;1016;48.770;9.154;2022-09-09T13:41:27;17.20;;;1.60;;
2023;SDS011;1016;48.770;9.154;2022-09-09T13:43:58;16.33;;;1.33;;
2023;SDS011;1016;48.770;9.154;2022-09-09T13:46:33;16.42;;;1.10;;
2023;SDS011;1016;48.770;9.154;2022-09-09T13:51:39;17.42;;;1.30;;
2023;SDS011;1016;48.770;9.154;2022-09-09T13:54:12;16.80;;;1.10;;
2023;SDS011;1016;48.770;9.154;2022-09-09T13:56:39;17.35;;;1.17;;
2023;SDS011;1016;48.770;9.154;2022-09-09T13:59:06;16.20;;;1.00;;
2023;SDS011;1016;48.770;9.154;2022-09-09T14:01:39;16.55;;;1.30;;
2023;SDS011;1016;48.770;9.154;2022-09-09T14:04:05;17.02;;;1.25;;
2023;SDS011;1016;48.770;9.154;2022-09-09T14:06:32;17.20;;;1.70;;
2023;SDS011;1016;48.770;9.154;2022-09-09T14:09:02;16.23;;;1.30;;
2023;SDS011;1016;48.770;9.154;2022-09-09T14:11:27;16.50;;;1.55;;
2023;SDS011;1016;48.770;9.154;2022-09-09T14:13:53;16.00;;;1.25;;
2023;SDS011;1016;48.770;9.154;2022-09-09T14:16:19;19.30;;;1.40;;
2023;SDS011;1016;48.770;9.154;2022-09-09T14:18:46;17.10;;;1.42;;
2023;SDS011;1016;48.770;9.154;2022-09-09T14:21:13;17.30;;;1.30;;
2023;SDS011;1016;48.770;9.154;2022-09-09T14:23:39;16.60;;;1.30;;
2023;SDS011;1016;48.770;9.154;2022-09-09T14:26:05;17.20;;;1.40;;
2023;SDS011;1016;48.770;9.154;2022-09-09T14:28:32;16.70;;;1.20;;
2023;SDS011;1016;48.770;9.154;2022-09-09T14:31:01;17.50;;;1.50;;
2023;SDS011;1016;48.770;9.154;2022-09-09T14:33:29;16.60;;;1.45;;
2023;SDS011;1016;48.770;9.154;2022-09-09T14:35:58;16.80;;;1.30;;
2023;SDS011;1016;48.770;9.154;2022-09-09T14:38:28;16.27;;;1.00;;
2023;SDS011;1016;48.770;9.154;2022-09-09T14:40:55;17.30;;;1.20;;
2023;SDS011;1016;48.770;9.154;2022-09-09T14:43:21;18.30;;;1.40;;
2023;SDS011;1016;48.770;9.154;2022-09-09T14:45:46;18.15;;;2.58;;
2023;SDS011;1016;48.770;9.154;2022-09-09T14:48:13;17.20;;;1.00;;
2023;SDS011;1016;48.770;9.154;2022-09-09T14:50:42;15.20;;;1.10;;
2023;SDS011;1016;48.770;9.154;2022-09-09T14:53:07;16.10;;;1.10;;
2023;SDS011;1016;48.770;9.154;2022-09-09T14:55:34;16.83;;;1.40;;
2023;SDS011;1016;48.770;9.154;2022-09-09T14:58:00;14.80;;;1.73;;
2023;SDS011;1016;48.770;9.154;2022-09-09T15:00:25;15.20;;;0.97;;
2023;SDS011;1016;48.770;9.154;2022-09-09T15:02:54;15.00;;;1.17;;
2023;SDS011;1016;48.770;9.154;2022-09-09T15:05:20;14.77;;;1.20;;
2023;SDS011;1016;48.770;9.154;2022-09-09T15:07:46;14.60;;;0.90;;
2023;SDS011;1016;48.770;9.154;2022-09-09T15:10:13;17.63;;;1.37;;
2023;SDS011;1016;48.770;9.154;2022-09-09T15:12:39;15.10;;;0.90;;
2023;SDS011;1016;48.770;9.154;2022-09-09T15:15:06;16.70;;;1.20;;
2023;SDS011;1016;48.770;9.154;2022-09-09T15:17:33;17.58;;;1.58;;
2023;SDS011;1016;48.770;9.154;2022-09-09T15:19:59;16.50;;;1.30;;
2023;SDS011;1016;48.770;9.154;2022-09-09T15:22:24;16.60;;;1.53;;
